Mineral Faith — VRKS4 — position and weather

sailwx.info

Track history (hours):
 
Tides and Currents Weather Stations Pressure Air Temp Water Temp Dewpoint Dewpoint Depression Visibility Wind Speed Wind Dir Waves Ship Positions

Mineral Faith

Last reported at 2017-May-14 04:38 UTC. Time now 2017-May-24 06:07 UTC.
Position N 01°16' E 104°05'.
Warning: this ship's position is 10 days out of date.

Length 292 m; draft 18.5 m.

Type: Cargo ship. MMSI: 477947500.

Date/timePositionNaut miles runAvg speedWind from/ knotsBaromVisibWave heightAir tempDewpointWater temp
2017-May-14 04:38N 01°16' E 104°05'1 7.3
2017-May-14 04:28N 01°17' E 104°04'1 0.5
2017-May-14 01:41N 01°17' E 104°03'0 0.1
2017-May-14 01:12N 01°17' E 104°03'0 0.0
2017-May-13 15:39N 01°17' E 104°03'0 2.4
2017-May-13 15:28N 01°17' E 104°03'4 1.8
2017-May-13 13:22N 01°14' E 104°00'410.7
2017-May-13 13:00N 01°14' E 103°56'510.1
2017-May-13 12:30N 01°12' E 103°52'5 9.8
2017-May-13 12:01N 01°10' E 103°47'510.2
2017-May-13 11:30N 01°06' E 103°44'5 9.3
2017-May-13 10:59N 01°04' E 103°39'3 6.2
2017-May-13 10:30N 01°04' E 103°36'5 9.4
2017-May-13 10:00N 01°06' E 103°32'510.4
2017-May-13 09:31N 01°09' E 103°28'7211.5
2017-May-13 03:15N 01°47' E 102°27'612.7
2017-May-13 02:46N 01°49' E 102°21'412.8
2017-May-13 02:29N 01°51' E 102°18'  
2017-May-04 20:56N 02°10' E 102°01'510.7
2017-May-04 20:26N 02°07' E 102°05'510.7
2017-May-04 20:00N 02°04' E 102°08'510.8
2017-May-04 19:30N 02°01' E 102°13'610.8
2017-May-04 19:00N 01°57' E 102°17'510.7
2017-May-04 18:29N 01°55' E 102°22'511.0
2017-May-04 18:00N 01°52' E 102°26'611.3
2017-May-04 17:30N 01°50' E 102°31'611.5
2017-May-04 17:00N 01°48' E 102°37'611.8
2017-May-04 16:30N 01°45' E 102°42'4511.5
2017-May-04 12:38N 01°19' E 103°18'310.9
2017-May-04 12:21N 01°17' E 103°21'410.6
2017-May-04 12:00N 01°15' E 103°24'510.5
2017-May-04 11:30N 01°14' E 103°29'510.9
2017-May-04 11:00N 01°12' E 103°34'611.1
2017-May-04 10:30N 01°11' E 103°39'511.0
2017-May-04 10:00N 01°09' E 103°44'713.0
2017-May-04 09:31N 01°11' E 103°50'612.4
2017-May-04 09:00N 01°14' E 103°56'4 7.1
2017-May-04 08:30N 01°15' E 103°59'  
Track history (hours):
 
Tides and Currents Weather Stations Pressure Air Temp Water Temp Dewpoint Dewpoint Depression Visibility Wind Speed Wind Dir Waves Ship Positions

Mineral Faith

Last reported at 2017-May-14 04:38 UTC. Time now 2017-May-24 06:07 UTC.
Position N 01°16' E 104°05'.
Warning: this ship's position is 10 days out of date.

Length 292 m; draft 18.5 m.

Type: Cargo ship. MMSI: 477947500.

Date/timePositionNaut miles runAvg speedWind from/ knotsBaromVisibWave heightAir tempDewpointWater temp
2017-May-14 04:38N 01°16' E 104°05'1 7.3
2017-May-14 04:28N 01°17' E 104°04'1 0.5
2017-May-14 01:41N 01°17' E 104°03'0 0.1
2017-May-14 01:12N 01°17' E 104°03'0 0.0
2017-May-13 15:39N 01°17' E 104°03'0 2.4
2017-May-13 15:28N 01°17' E 104°03'4 1.8
2017-May-13 13:22N 01°14' E 104°00'410.7
2017-May-13 13:00N 01°14' E 103°56'510.1
2017-May-13 12:30N 01°12' E 103°52'5 9.8
2017-May-13 12:01N 01°10' E 103°47'510.2
2017-May-13 11:30N 01°06' E 103°44'5 9.3
2017-May-13 10:59N 01°04' E 103°39'3 6.2
2017-May-13 10:30N 01°04' E 103°36'5 9.4
2017-May-13 10:00N 01°06' E 103°32'510.4
2017-May-13 09:31N 01°09' E 103°28'7211.5
2017-May-13 03:15N 01°47' E 102°27'612.7
2017-May-13 02:46N 01°49' E 102°21'412.8
2017-May-13 02:29N 01°51' E 102°18'  
2017-May-04 20:56N 02°10' E 102°01'510.7
2017-May-04 20:26N 02°07' E 102°05'510.7
2017-May-04 20:00N 02°04' E 102°08'510.8
2017-May-04 19:30N 02°01' E 102°13'610.8
2017-May-04 19:00N 01°57' E 102°17'510.7
2017-May-04 18:29N 01°55' E 102°22'511.0
2017-May-04 18:00N 01°52' E 102°26'611.3
2017-May-04 17:30N 01°50' E 102°31'611.5
2017-May-04 17:00N 01°48' E 102°37'611.8
2017-May-04 16:30N 01°45' E 102°42'4511.5
2017-May-04 12:38N 01°19' E 103°18'310.9
2017-May-04 12:21N 01°17' E 103°21'410.6
2017-May-04 12:00N 01°15' E 103°24'510.5
2017-May-04 11:30N 01°14' E 103°29'510.9
2017-May-04 11:00N 01°12' E 103°34'611.1
2017-May-04 10:30N 01°11' E 103°39'511.0
2017-May-04 10:00N 01°09' E 103°44'713.0
2017-May-04 09:31N 01°11' E 103°50'612.4
2017-May-04 09:00N 01°14' E 103°56'4 7.1
2017-May-04 08:30N 01°15' E 103°59'  

Dump ship's entire track history